Time;durP1;ratioP1;P1;durP2;ratioP2;P2;SDS_P1;SDS_P2;PMS_P1;PMS_P2;Temp;Humidity;BMP_temperature;BMP_pressure;BME280_temperature;BME280_humidity;BME280_pressure;Samples;Min_cycle;Max_cycle;Signal;HPM_P1;HPM_P2
2022/08/12 00:43:37;;;;;;;4.20;2.08;;;;;;;;;;5019425;28;20116;-84
2022/08/12 00:46:30;;;;;;;4.72;1.75;;;;;;;;;;5029830;28;20123;-84
2022/08/12 00:49:17;;;;;;;2.95;1.98;;;;;;;;;;5028623;28;20076;-84
2022/08/12 00:52:07;;;;;;;3.95;1.95;;;;;;;;;;5017600;28;20045;-84
2022/08/12 00:54:59;;;;;;;3.47;2.05;;;;;;;;;;5016369;28;20037;-84
2022/08/12 00:57:47;;;;;;;3.40;2.28;;;;;;;;;;5028573;28;20057;-84
2022/08/12 01:00:33;;;;;;;3.97;1.95;;;;;;;;;;5028526;28;20047;-84
2022/08/12 01:03:18;;;;;;;2.75;1.83;;;;;;;;;;5028779;28;20037;-84
2022/08/12 01:12:14;;;;;;;4.03;2.17;;;;;;;;;;5019141;28;20049;-84
2022/08/12 01:15:00;;;;;;;4.13;2.22;;;;;;;;;;5031173;28;20099;-84
2022/08/12 01:17:46;;;;;;;4.32;2.13;;;;;;;;;;5018533;28;20041;-83
2022/08/12 01:20:48;;;;;;;3.00;1.98;;;;;;;;;;5019278;28;20052;-84
2022/08/12 01:23:38;;;;;;;;;;;;;;;;;;5020092;28;20041;-84
2022/08/12 01:26:23;;;;;;;3.22;2.30;;;;;;;;;;5034955;28;19917;-84
2022/08/12 01:29:09;;;;;;;3.70;2.35;;;;;;;;;;5018505;28;20044;-84
2022/08/12 01:31:58;;;;;;;4.00;2.30;;;;;;;;;;5020427;28;20504;-83
2022/08/12 01:34:45;;;;;;;3.58;2.28;;;;;;;;;;5032202;28;20041;-84
2022/08/12 01:37:35;;;;;;;3.95;2.33;;;;;;;;;;5020051;28;20036;-84
2022/08/12 01:40:27;;;;;;;3.47;2.20;;;;;;;;;;5031697;28;20041;-84
2022/08/12 01:43:20;;;;;;;4.22;2.28;;;;;;;;;;5007425;28;20523;-85
2022/08/12 01:46:36;;;;;;;3.63;2.13;;;;;;;;;;5033439;28;20045;-85
2022/08/12 01:49:25;;;;;;;6.22;2.35;;;;;;;;;;5032647;28;20037;-84
2022/08/12 01:52:36;;;;;;;3.38;2.10;;;;;;;;;;5031888;28;20514;-85
2022/08/12 01:55:28;;;;;;;2.85;2.10;;;;;;;;;;5022039;28;20116;-83
2022/08/12 01:58:17;;;;;;;2.22;1.88;;;;;;;;;;5031528;28;20037;-84
2022/08/12 02:01:06;;;;;;;4.18;2.05;;;;;;;;;;5019372;28;20050;-84
2022/08/12 02:11:20;;;;;;;4.25;2.17;;;;;;;;;;5032898;28;20049;-84
2022/08/12 02:14:17;;;;;;;3.30;2.42;;;;;;;;;;5031255;28;20034;-84
2022/08/12 02:17:28;;;;;;;3.97;2.05;;;;;;;;;;5031658;28;20515;-84
2022/08/12 02:20:30;;;;;;;3.55;2.13;;;;;;;;;;5031394;28;20037;-84
2022/08/12 02:23:17;;;;;;;;;;;;;;;;;;5021062;28;20518;-84
2022/08/12 02:26:04;;;;;;;3.53;2.53;;;;;;;;;;5033252;28;20303;-83
2022/08/12 02:28:51;;;;;;;2.97;2.10;;;;;;;;;;5032237;28;20049;-84
2022/08/12 02:31:36;;;;;;;3.67;2.33;;;;;;;;;;5031018;28;20053;-84
2022/08/12 02:34:23;;;;;;;3.80;2.00;;;;;;;;;;5018923;28;20033;-84
2022/08/12 02:37:09;;;;;;;3.47;1.92;;;;;;;;;;5031897;28;20103;-84
2022/08/12 02:39:55;;;;;;;3.95;2.08;;;;;;;;;;5018760;28;20041;-84
2022/08/12 02:42:52;;;;;;;2.65;1.80;;;;;;;;;;5017564;28;20487;-84
2022/08/12 02:45:44;;;;;;;4.18;2.15;;;;;;;;;;5018733;28;20500;-84
2022/08/12 02:48:34;;;;;;;3.33;2.00;;;;;;;;;;5017256;28;20075;-84
2022/08/12 02:51:25;;;;;;;3.58;2.25;;;;;;;;;;5030276;28;20046;-84
2022/08/12 02:54:10;;;;;;;2.67;1.95;;;;;;;;;;5033009;28;20056;-84
2022/08/12 02:56:57;;;;;;;3.33;2.08;;;;;;;;;;5033228;28;20033;-84
2022/08/12 02:59:43;;;;;;;5.20;2.20;;;;;;;;;;5018689;28;20072;-84
2022/08/12 03:02:30;;;;;;;4.03;2.33;;;;;;;;;;5030398;28;20576;-84
2022/08/12 03:05:17;;;;;;;3.70;2.25;;;;;;;;;;5030212;28;20042;-84
2022/08/12 03:08:03;;;;;;;2.72;1.80;;;;;;;;;;5030131;28;20037;-84
2022/08/12 03:10:49;;;;;;;5.00;3.22;;;;;;;;;;5005750;28;20496;-83
2022/08/12 03:13:38;;;;;;;3.03;1.92;;;;;;;;;;5031162;28;20068;-84
2022/08/12 03:16:26;;;;;;;2.63;1.75;;;;;;;;;;5018344;28;20030;-84
2022/08/12 03:19:12;;;;;;;2.92;2.20;;;;;;;;;;5030882;28;20037;-84
2022/08/12 03:22:11;;;;;;;2.30;1.85;;;;;;;;;;5030837;28;20155;-84
2022/08/12 03:25:00;;;;;;;3.60;2.33;;;;;;;;;;5030229;28;20061;-84
2022/08/12 03:27:50;;;;;;;4.03;2.45;;;;;;;;;;5032740;28;20132;-83
2022/08/12 03:30:36;;;;;;;3.10;2.13;;;;;;;;;;5029564;28;20042;-84
2022/08/12 03:33:22;;;;;;;4.15;2.15;;;;;;;;;;5030577;28;20044;-84
2022/08/12 03:36:08;;;;;;;5.38;2.13;;;;;;;;;;5029334;28;20029;-84
2022/08/12 03:39:40;;;;;;;2.85;2.10;;;;;;;;;;5030780;28;20067;-84
2022/08/12 03:42:08;;;;;;;3.17;1.90;;;;;;;;;;5031439;28;20045;-84
2022/08/12 04:00:31;;;;;;;3.50;2.10;;;;;;;;;;5030852;28;20419;-84
2022/08/12 04:06:22;;;;;;;3.88;2.25;;;;;;;;;;5030961;28;20041;-84
2022/08/12 04:09:08;;;;;;;2.55;2.20;;;;;;;;;;5031126;28;20045;-84
2022/08/12 04:14:58;;;;;;;3.30;2.33;;;;;;;;;;5030971;28;20049;-84
2022/08/12 04:17:46;;;;;;;4.88;2.25;;;;;;;;;;5028460;28;20045;-84
2022/08/12 04:20:32;;;;;;;3.17;2.15;;;;;;;;;;5016477;28;20073;-84
2022/08/12 04:23:18;;;;;;;3.17;1.90;;;;;;;;;;5017800;28;20041;-83
2022/08/12 04:26:05;;;;;;;2.33;1.65;;;;;;;;;;5018254;28;20045;-84
2022/08/12 04:28:53;;;;;;;3.35;1.70;;;;;;;;;;5029448;28;20500;-84
2022/08/12 04:31:40;;;;;;;2.60;1.60;;;;;;;;;;5016722;28;20452;-84
2022/08/12 04:34:27;;;;;;;3.17;2.17;;;;;;;;;;5018244;28;20047;-84
2022/08/12 04:37:14;;;;;;;3.55;2.22;;;;;;;;;;5016854;28;20033;-84
2022/08/12 04:40:00;;;;;;;3.22;1.90;;;;;;;;;;5028779;28;20136;-84
2022/08/12 04:42:46;;;;;;;3.70;2.33;;;;;;;;;;5003250;28;20038;-83
2022/08/12 04:45:33;;;;;;;2.67;1.98;;;;;;;;;;5016420;28;20171;-84
2022/08/12 04:48:19;;;;;;;3.28;2.00;;;;;;;;;;5030515;28;20037;-84
2022/08/12 04:51:04;;;;;;;4.15;2.10;;;;;;;;;;5019513;28;20052;-83
2022/08/12 04:53:50;;;;;;;2.95;2.00;;;;;;;;;;5033639;28;20041;-84
2022/08/12 04:56:36;;;;;;;2.63;2.10;;;;;;;;;;5032517;28;20033;-84
2022/08/12 04:59:22;;;;;;;2.72;2.05;;;;;;;;;;5020573;28;20034;-83
2022/08/12 05:02:08;;;;;;;3.17;2.25;;;;;;;;;;5019357;28;20045;-84
2022/08/12 05:04:56;;;;;;;3.15;2.17;;;;;;;;;;5032653;28;20037;-84
2022/08/12 05:07:42;;;;;;;4.05;2.25;;;;;;;;;;5008479;28;20048;-83
2022/08/12 05:10:28;;;;;;;2.28;1.90;;;;;;;;;;5032218;28;20522;-84
2022/08/12 05:13:22;;;;;;;3.25;2.25;;;;;;;;;;5020256;28;20046;-83
2022/08/12 05:16:08;;;;;;;3.08;2.10;;;;;;;;;;5021344;28;20029;-84
2022/08/12 05:18:53;;;;;;;2.78;1.98;;;;;;;;;;5033425;28;20132;-84
2022/08/12 05:21:39;;;;;;;3.58;2.00;;;;;;;;;;5019793;28;20037;-84
2022/08/12 05:24:25;;;;;;;3.72;2.10;;;;;;;;;;5021381;28;20041;-84
2022/08/12 05:27:11;;;;;;;2.75;1.90;;;;;;;;;;5018794;28;20041;-84
2022/08/12 05:29:57;;;;;;;5.00;2.10;;;;;;;;;;5018433;28;20042;-84
2022/08/12 05:32:42;;;;;;;3.13;2.45;;;;;;;;;;5031932;28;20042;-83
2022/08/12 05:35:28;;;;;;;4.85;2.70;;;;;;;;;;5031821;28;20073;-83
2022/08/12 05:41:19;;;;;;;3.67;1.98;;;;;;;;;;5022554;28;20132;-84
2022/08/12 05:44:06;;;;;;;3.13;2.20;;;;;;;;;;5033334;28;20052;-84
2022/08/12 05:46:52;;;;;;;3.80;2.20;;;;;;;;;;5019620;28;20590;-84
2022/08/12 05:49:40;;;;;;;5.20;2.50;;;;;;;;;;5031510;28;20037;-84
2022/08/12 05:52:25;;;;;;;5.10;2.53;;;;;;;;;;5018921;28;20041;-85
2022/08/12 05:55:11;;;;;;;2.83;1.95;;;;;;;;;;5032021;28;20060;-85
2022/08/12 05:57:57;;;;;;;4.18;2.22;;;;;;;;;;5031167;28;20037;-84
2022/08/12 06:00:43;;;;;;;3.88;2.20;;;;;;;;;;5030658;28;20044;-84
2022/08/12 06:03:28;;;;;;;3.17;2.10;;;;;;;;;;5006822;28;20049;-84
2022/08/12 06:06:18;;;;;;;4.15;2.47;;;;;;;;;;5031188;28;20038;-84
2022/08/12 06:09:03;;;;;;;3.35;2.15;;;;;;;;;;5031314;28;20055;-84
2022/08/12 06:11:50;;;;;;;2.42;1.90;;;;;;;;;;5018018;28;20104;-85
2022/08/12 06:14:35;;;;;;;3.47;2.05;;;;;;;;;;5031680;28;20041;-85
2022/08/12 06:17:21;;;;;;;4.43;3.03;;;;;;;;;;5031249;28;20061;-84
2022/08/12 06:20:12;;;;;;;4.97;2.20;;;;;;;;;;5018147;28;20044;-85
2022/08/12 06:22:58;;;;;;;3.53;2.20;;;;;;;;;;5031348;28;20044;-84
2022/08/12 06:25:45;;;;;;;4.15;2.13;;;;;;;;;;5017927;28;20128;-85
2022/08/12 06:28:31;;;;;;;3.83;2.33;;;;;;;;;;5030799;28;20126;-84
2022/08/12 06:31:19;;;;;;;3.25;1.85;;;;;;;;;;5020037;28;20038;-84
2022/08/12 06:34:07;;;;;;;4.65;2.30;;;;;;;;;;5030844;28;20555;-85
2022/08/12 06:36:54;;;;;;;3.22;2.00;;;;;;;;;;5019923;28;20119;-85
2022/08/12 06:39:40;;;;;;;2.80;1.90;;;;;;;;;;5030751;28;20052;-85
2022/08/12 06:45:30;;;;;;;3.03;1.98;;;;;;;;;;5020742;28;20119;-85
2022/08/12 06:48:16;;;;;;;4.97;2.58;;;;;;;;;;5032825;28;20034;-85
2022/08/12 06:51:02;;;;;;;3.85;2.08;;;;;;;;;;5032007;28;20053;-85
2022/08/12 06:53:47;;;;;;;2.55;1.83;;;;;;;;;;5032229;28;20084;-85
2022/08/12 06:56:33;;;;;;;5.25;1.92;;;;;;;;;;5030357;28;20030;-85
2022/08/12 06:59:20;;;;;;;3.38;1.92;;;;;;;;;;5005483;28;20127;-85
2022/08/12 07:02:07;;;;;;;3.72;1.60;;;;;;;;;;5017307;28;20038;-85
2022/08/12 07:04:53;;;;;;;3.38;1.60;;;;;;;;;;5016675;28;20582;-85
2022/08/12 07:07:38;;;;;;;3.28;1.58;;;;;;;;;;5030376;28;20412;-85
2022/08/12 07:10:25;;;;;;;3.85;2.00;;;;;;;;;;5018582;28;20037;-85
2022/08/12 07:13:10;;;;;;;3.17;2.08;;;;;;;;;;5018914;28;20052;-85
2022/08/12 07:15:57;;;;;;;4.03;1.88;;;;;;;;;;5019330;28;20045;-85
2022/08/12 07:18:44;;;;;;;3.65;2.20;;;;;;;;;;5030226;28;20045;-85
2022/08/12 07:21:32;;;;;;;4.55;1.77;;;;;;;;;;5016749;28;20636;-85
2022/08/12 07:24:18;;;;;;;4.50;2.28;;;;;;;;;;5029609;28;20045;-85
2022/08/12 07:27:03;;;;;;;3.42;1.85;;;;;;;;;;5005431;28;20417;-85
2022/08/12 07:29:49;;;;;;;4.82;2.13;;;;;;;;;;5017065;28;20041;-85
2022/08/12 07:32:35;;;;;;;3.20;1.77;;;;;;;;;;5029796;28;20037;-86
2022/08/12 07:35:21;;;;;;;2.33;1.63;;;;;;;;;;5030808;28;20046;-86
2022/08/12 07:38:36;;;;;;;4.53;2.67;;;;;;;;;;5029570;28;20087;-85
2022/08/12 07:41:27;;;;;;;2.78;1.60;;;;;;;;;;5030703;28;20052;-84
2022/08/12 07:44:13;;;;;;;3.90;1.88;;;;;;;;;;5032853;28;20049;-86
2022/08/12 07:46:59;;;;;;;5.38;2.17;;;;;;;;;;5018660;28;20041;-85
2022/08/12 07:49:45;;;;;;;3.10;1.98;;;;;;;;;;5029354;28;20037;-86
2022/08/12 07:52:31;;;;;;;3.15;1.75;;;;;;;;;;5005159;28;20500;-85
2022/08/12 07:55:17;;;;;;;4.13;1.83;;;;;;;;;;5029075;28;20492;-85
2022/08/12 07:58:03;;;;;;;6.40;2.17;;;;;;;;;;5016736;28;20068;-86
2022/08/12 08:00:49;;;;;;;3.10;1.70;;;;;;;;;;5029748;28;20033;-85
2022/08/12 08:04:54;;;;;;;3.35;2.05;;;;;;;;;;5004893;28;20591;-85
2022/08/12 08:06:44;;;;;;;3.00;1.83;;;;;;;;;;5030437;28;20037;-85
2022/08/12 08:09:30;;;;;;;5.07;1.92;;;;;;;;;;5004391;28;20115;-85
2022/08/12 08:15:34;;;;;;;3.08;1.83;;;;;;;;;;5021270;28;20053;-85
2022/08/12 08:18:20;;;;;;;4.07;2.00;;;;;;;;;;5016146;28;20567;-85
2022/08/12 08:21:07;;;;;;;4.25;1.77;;;;;;;;;;5015931;28;20108;-85
2022/08/12 08:26:58;;;;;;;3.75;1.70;;;;;;;;;;5020656;28;20042;-86
2022/08/12 08:29:44;;;;;;;3.53;1.75;;;;;;;;;;5029053;28;20033;-86
2022/08/12 08:32:31;;;;;;;3.20;1.60;;;;;;;;;;5029020;28;20067;-86
2022/08/12 08:35:17;;;;;;;2.83;2.15;;;;;;;;;;5004763;28;20033;-85
2022/08/12 08:38:13;;;;;;;3.60;1.45;;;;;;;;;;5028636;28;20459;-85
2022/08/12 08:44:03;;;;;;;2.90;1.60;;;;;;;;;;5030827;28;20033;-86
2022/08/12 08:46:49;;;;;;;3.35;2.13;;;;;;;;;;5030009;28;20041;-85
2022/08/12 08:49:35;;;;;;;2.63;1.58;;;;;;;;;;5016418;28;20064;-86
2022/08/12 08:52:23;;;;;;;2.67;1.50;;;;;;;;;;5029564;28;20049;-85
2022/08/12 08:55:09;;;;;;;4.55;2.17;;;;;;;;;;5017326;28;20408;-85
2022/08/12 08:57:55;;;;;;;5.18;1.90;;;;;;;;;;5015094;28;20061;-86
2022/08/12 09:00:42;;;;;;;2.60;1.60;;;;;;;;;;5028766;28;20045;-86
2022/08/12 09:03:28;;;;;;;6.32;2.08;;;;;;;;;;5016401;28;20060;-85
2022/08/12 09:06:14;;;;;;;2.15;1.33;;;;;;;;;;5027898;28;20041;-86
2022/08/12 09:09:03;;;;;;;3.08;1.27;;;;;;;;;;5003938;28;20191;-86
2022/08/12 09:14:53;;;;;;;2.03;1.20;;;;;;;;;;5030649;28;20041;-85
2022/08/12 09:17:41;;;;;;;4.97;1.85;;;;;;;;;;5028518;28;20053;-85
2022/08/12 09:20:28;;;;;;;3.17;1.50;;;;;;;;;;5031312;28;20091;-86
2022/08/12 09:23:14;;;;;;;2.40;1.30;;;;;;;;;;5029776;28;20420;-86
2022/08/12 09:26:01;;;;;;;2.58;1.38;;;;;;;;;;5028826;28;20076;-85
2022/08/12 09:28:47;;;;;;;2.75;1.33;;;;;;;;;;5004047;28;20041;-85
2022/08/12 09:31:34;;;;;;;2.55;1.00;;;;;;;;;;5030077;28;20041;-86
2022/08/12 09:34:19;;;;;;;2.15;1.30;;;;;;;;;;5028773;28;20044;-86
2022/08/12 09:37:05;;;;;;;2.60;1.40;;;;;;;;;;5007154;28;20041;-86
2022/08/12 09:39:53;;;;;;;2.97;1.60;;;;;;;;;;5007052;28;20205;-84
2022/08/12 09:45:48;;;;;;;1.80;1.10;;;;;;;;;;5023564;28;20042;-85
2022/08/12 09:48:33;;;;;;;2.17;1.30;;;;;;;;;;5034599;28;20041;-86
2022/08/12 09:51:19;;;;;;;2.42;1.20;;;;;;;;;;5031320;28;20092;-86
2022/08/12 09:54:05;;;;;;;1.50;0.90;;;;;;;;;;5018548;28;20033;-86
2022/08/12 09:56:52;;;;;;;2.97;1.30;;;;;;;;;;5018223;28;20411;-86
2022/08/12 09:59:38;;;;;;;2.83;1.20;;;;;;;;;;5005804;28;20041;-85
2022/08/12 10:02:25;;;;;;;1.90;1.10;;;;;;;;;;5018163;28;20128;-85
2022/08/12 10:05:11;;;;;;;1.95;1.05;;;;;;;;;;5031328;28;20415;-84
2022/08/12 10:07:56;;;;;;;2.55;0.93;;;;;;;;;;5031460;28;20504;-84
2022/08/12 10:13:48;;;;;;;1.83;1.08;;;;;;;;;;5033050;28;20116;-84
2022/08/12 10:16:42;;;;;;;1.98;1.02;;;;;;;;;;5031271;28;20835;-85
2022/08/12 10:19:28;;;;;;;1.40;0.80;;;;;;;;;;5030782;28;20033;-85
2022/08/12 10:22:14;;;;;;;3.67;0.98;;;;;;;;;;5030879;28;20423;-85
2022/08/12 10:31:09;;;;;;;2.63;0.93;;;;;;;;;;5032602;28;20037;-85
2022/08/12 10:33:55;;;;;;;1.35;0.82;;;;;;;;;;5031847;28;20327;-84
2022/08/12 10:36:41;;;;;;;2.08;0.80;;;;;;;;;;5018742;28;20128;-85
2022/08/12 10:39:34;;;;;;;2.58;0.80;;;;;;;;;;5020576;28;20044;-84
2022/08/12 10:45:24;;;;;;;2.38;1.05;;;;;;;;;;5032272;28;20041;-85
2022/08/12 10:48:10;;;;;;;1.65;0.80;;;;;;;;;;5016696;28;20419;-85
2022/08/12 10:50:55;;;;;;;1.17;0.88;;;;;;;;;;5005806;28;20423;-85
2022/08/12 10:53:42;;;;;;;2.10;0.75;;;;;;;;;;5017076;28;20026;-85
2022/08/12 10:56:31;;;;;;;2.13;0.85;;;;;;;;;;5030317;28;20158;-85
2022/08/12 10:59:18;;;;;;;0.82;0.60;;;;;;;;;;5031510;28;20507;-85
2022/08/12 11:02:04;;;;;;;1.10;0.70;;;;;;;;;;5019595;28;20431;-85
2022/08/12 11:04:50;;;;;;;1.77;0.85;;;;;;;;;;5004216;28;20037;-84
2022/08/12 11:07:37;;;;;;;1.25;0.80;;;;;;;;;;5030308;28;20053;-85
2022/08/12 11:10:22;;;;;;;1.42;0.63;;;;;;;;;;5031261;28;20045;-85
2022/08/12 11:13:08;;;;;;;1.52;0.75;;;;;;;;;;5030049;28;20033;-86
2022/08/12 11:15:54;;;;;;;1.17;0.70;;;;;;;;;;5016655;28;20041;-83
2022/08/12 11:18:40;;;;;;;2.10;0.77;;;;;;;;;;5017794;28;20049;-84
2022/08/12 11:21:26;;;;;;;3.67;1.17;;;;;;;;;;5029797;28;20111;-85
2022/08/12 11:24:11;;;;;;;1.75;0.90;;;;;;;;;;5029719;28;20042;-85
2022/08/12 11:26:58;;;;;;;1.25;0.73;;;;;;;;;;5029873;28;20044;-84
2022/08/12 11:29:44;;;;;;;1.88;0.75;;;;;;;;;;5029835;28;20041;-85
2022/08/12 11:32:29;;;;;;;1.35;0.60;;;;;;;;;;5029664;28;20030;-86
2022/08/12 11:35:15;;;;;;;1.90;0.95;;;;;;;;;;5016504;28;20053;-86
2022/08/12 11:38:02;;;;;;;2.17;0.90;;;;;;;;;;5029746;28;20041;-83
2022/08/12 11:40:47;;;;;;;1.05;0.65;;;;;;;;;;5016854;28;20049;-86
2022/08/12 11:43:33;;;;;;;2.08;0.98;;;;;;;;;;5017694;28;20033;-86
2022/08/12 11:46:19;;;;;;;1.30;0.75;;;;;;;;;;5018213;28;20423;-85
2022/08/12 11:49:05;;;;;;;2.45;0.90;;;;;;;;;;5016696;28;20037;-85
2022/08/12 11:51:50;;;;;;;1.40;0.50;;;;;;;;;;5015548;28;20044;-85
2022/08/12 11:54:36;;;;;;;1.83;0.77;;;;;;;;;;5030276;28;20041;-85
2022/08/12 11:57:22;;;;;;;1.38;0.47;;;;;;;;;;5004265;28;20034;-85
2022/08/12 12:00:09;;;;;;;1.13;0.65;;;;;;;;;;5030764;28;20037;-85
2022/08/12 12:02:54;;;;;;;1.90;0.80;;;;;;;;;;5016558;28;20041;-85
2022/08/12 12:05:40;;;;;;;1.65;1.10;;;;;;;;;;5029248;28;20041;-86
2022/08/12 12:08:26;;;;;;;1.45;0.73;;;;;;;;;;5030263;28;20049;-86
2022/08/12 12:11:12;;;;;;;2.05;0.80;;;;;;;;;;5017017;28;20084;-85
2022/08/12 12:13:57;;;;;;;0.88;0.50;;;;;;;;;;5018501;28;20495;-85
2022/08/12 12:16:43;;;;;;;1.98;0.80;;;;;;;;;;5015643;28;20450;-85
2022/08/12 12:19:29;;;;;;;1.63;0.70;;;;;;;;;;5029090;28;20049;-86
2022/08/12 12:22:15;;;;;;;0.70;0.40;;;;;;;;;;5004279;28;20111;-83
2022/08/12 12:25:00;;;;;;;2.83;0.80;;;;;;;;;;5004208;28;20041;-83
2022/08/12 12:27:53;;;;;;;1.35;0.60;;;;;;;;;;5028984;28;20033;-83
2022/08/12 12:30:39;;;;;;;2.55;0.70;;;;;;;;;;5028471;28;20041;-86
2022/08/12 12:33:25;;;;;;;1.15;0.65;;;;;;;;;;5028844;28;20034;-84
2022/08/12 12:36:11;;;;;;;1.17;0.60;;;;;;;;;;5015366;28;20080;-85
2022/08/12 12:38:57;;;;;;;2.08;0.75;;;;;;;;;;5028871;28;20045;-85
2022/08/12 12:41:42;;;;;;;1.40;0.68;;;;;;;;;;5031596;28;20195;-85
2022/08/12 12:44:28;;;;;;;1.60;0.80;;;;;;;;;;5028680;28;20416;-85
2022/08/12 12:47:15;;;;;;;0.93;0.73;;;;;;;;;;5017324;28;20542;-86
2022/08/12 12:50:01;;;;;;;1.15;0.70;;;;;;;;;;5029158;28;20496;-86
2022/08/12 12:52:46;;;;;;;1.50;0.70;;;;;;;;;;5028620;28;20049;-85
2022/08/12 12:55:36;;;;;;;2.65;1.02;;;;;;;;;;5029003;28;20075;-85
2022/08/12 12:58:22;;;;;;;1.30;0.70;;;;;;;;;;5028484;28;20037;-84
2022/08/12 13:01:09;;;;;;;1.65;0.60;;;;;;;;;;5016620;28;20042;-84
2022/08/12 13:03:55;;;;;;;1.20;0.60;;;;;;;;;;5016622;28;20044;-85
2022/08/12 13:06:41;;;;;;;0.95;0.60;;;;;;;;;;5015574;28;20060;-85
2022/08/12 13:09:26;;;;;;;2.33;0.70;;;;;;;;;;5017896;28;20068;-87
2022/08/12 13:12:13;;;;;;;1.13;0.60;;;;;;;;;;5032368;28;20045;-85
2022/08/12 13:15:02;;;;;;;1.27;0.47;;;;;;;;;;5032369;28;20033;-84
2022/08/12 13:17:49;;;;;;;1.17;0.70;;;;;;;;;;5020435;28;20045;-85
2022/08/12 13:20:34;;;;;;;1.23;0.65;;;;;;;;;;5033149;28;20057;-82
2022/08/12 13:23:20;;;;;;;0.88;0.55;;;;;;;;;;5007492;28;20037;-86
2022/08/12 13:26:06;;;;;;;2.17;0.80;;;;;;;;;;5008091;28;20030;-85
2022/08/12 13:28:52;;;;;;;1.00;0.60;;;;;;;;;;5018833;28;20043;-85
2022/08/12 13:31:40;;;;;;;1.05;0.40;;;;;;;;;;5032167;28;20470;-85
2022/08/12 13:34:26;;;;;;;1.55;0.65;;;;;;;;;;5019703;28;20182;-85
2022/08/12 13:37:12;;;;;;;1.38;0.47;;;;;;;;;;5019967;28;20037;-85
2022/08/12 13:39:57;;;;;;;0.68;0.47;;;;;;;;;;5020159;28;20050;-86
2022/08/12 13:42:47;;;;;;;1.13;0.63;;;;;;;;;;5019370;28;20033;-85
2022/08/12 13:45:33;;;;;;;1.05;0.50;;;;;;;;;;5019678;28;20044;-85
2022/08/12 13:48:19;;;;;;;1.05;0.60;;;;;;;;;;5019737;28;20060;-86
2022/08/12 13:51:05;;;;;;;1.05;0.40;;;;;;;;;;5019418;28;20053;-85
2022/08/12 13:53:50;;;;;;;1.48;0.68;;;;;;;;;;5020638;28;20148;-86
2022/08/12 13:56:37;;;;;;;1.67;0.70;;;;;;;;;;5019371;28;20041;-85
2022/08/12 13:59:23;;;;;;;0.93;0.50;;;;;;;;;;5018717;28;20583;-85
2022/08/12 14:02:12;;;;;;;1.38;0.88;;;;;;;;;;5031667;28;20046;-84
2022/08/12 14:04:57;;;;;;;0.70;0.60;;;;;;;;;;5033014;28;20179;-84
2022/08/12 14:07:57;;;;;;;1.10;0.57;;;;;;;;;;5031098;28;20419;-83
2022/08/12 14:10:52;;;;;;;0.93;0.65;;;;;;;;;;5020948;28;20092;-86
2022/08/12 14:13:38;;;;;;;1.00;0.50;;;;;;;;;;5031807;28;20041;-86
2022/08/12 14:16:24;;;;;;;1.00;0.57;;;;;;;;;;5018263;28;20037;-85
2022/08/12 14:19:10;;;;;;;2.60;0.80;;;;;;;;;;5031103;28;20044;-85
2022/08/12 14:21:56;;;;;;;0.98;0.50;;;;;;;;;;5031628;28;20041;-86
2022/08/12 14:24:41;;;;;;;1.35;0.40;;;;;;;;;;5017818;28;20069;-86
2022/08/12 14:27:28;;;;;;;1.83;0.52;;;;;;;;;;5006380;28;20068;-85
2022/08/12 14:30:14;;;;;;;1.42;0.77;;;;;;;;;;5031011;28;20049;-86
2022/08/12 14:33:01;;;;;;;0.90;0.47;;;;;;;;;;5018095;28;20504;-85
2022/08/12 14:35:47;;;;;;;0.95;0.40;;;;;;;;;;5030735;28;20064;-85
2022/08/12 14:38:40;;;;;;;2.25;0.60;;;;;;;;;;5031062;28;20049;-85
2022/08/12 14:41:25;;;;;;;0.63;0.30;;;;;;;;;;5018702;28;20922;-86
2022/08/12 14:44:11;;;;;;;0.80;0.50;;;;;;;;;;5030715;28;20496;-82
2022/08/12 14:46:57;;;;;;;0.90;0.50;;;;;;;;;;5030741;28;20038;-86
2022/08/12 14:49:44;;;;;;;1.00;0.73;;;;;;;;;;5030879;28;20075;-84
2022/08/12 14:52:30;;;;;;;0.73;0.30;;;;;;;;;;5006304;28;20052;-85
2022/08/12 14:55:16;;;;;;;0.40;0.30;;;;;;;;;;5018241;28;20050;-86
2022/08/12 14:58:01;;;;;;;1.60;0.82;;;;;;;;;;5033244;28;20519;-86
2022/08/12 15:03:51;;;;;;;0.82;0.50;;;;;;;;;;5032207;28;20451;-85
2022/08/12 15:06:37;;;;;;;1.60;0.60;;;;;;;;;;5019268;28;20561;-84
2022/08/12 15:09:23;;;;;;;0.85;0.50;;;;;;;;;;5016457;28;20554;-83
2022/08/12 15:12:11;;;;;;;0.98;0.52;;;;;;;;;;5029898;28;20136;-85
2022/08/12 15:14:58;;;;;;;1.48;0.70;;;;;;;;;;5029965;28;20498;-84
2022/08/12 15:17:44;;;;;;;0.82;0.32;;;;;;;;;;5018142;28;20107;-83
2022/08/12 15:20:30;;;;;;;0.75;0.35;;;;;;;;;;5031131;28;20041;-85
2022/08/12 15:23:17;;;;;;;1.30;0.30;;;;;;;;;;5016284;28;20112;-84
2022/08/12 15:26:10;;;;;;;1.02;0.52;;;;;;;;;;5030032;28;20522;-85
2022/08/12 15:28:55;;;;;;;1.63;0.38;;;;;;;;;;5018130;28;20470;-84
2022/08/12 15:31:42;;;;;;;0.73;0.47;;;;;;;;;;5004922;28;20048;-85
2022/08/12 15:34:27;;;;;;;0.50;0.32;;;;;;;;;;5005203;28;20095;-84
2022/08/12 15:37:13;;;;;;;0.73;0.43;;;;;;;;;;5029564;28;20034;-83
2022/08/12 15:39:59;;;;;;;1.73;0.63;;;;;;;;;;5018499;28;20492;-82
2022/08/12 15:42:45;;;;;;;0.90;0.32;;;;;;;;;;5029553;28;20075;-84
2022/08/12 15:45:32;;;;;;;1.05;0.40;;;;;;;;;;5029436;28;20038;-85
2022/08/12 15:48:18;;;;;;;0.98;0.43;;;;;;;;;;5030742;28;20046;-85
2022/08/12 15:51:04;;;;;;;1.40;0.50;;;;;;;;;;5029363;28;20033;-85
2022/08/12 15:54:04;;;;;;;1.17;0.40;;;;;;;;;;5016141;28;20034;-85
2022/08/12 15:56:52;;;;;;;1.23;0.50;;;;;;;;;;5029438;28;20038;-85
2022/08/12 15:59:38;;;;;;;0.98;0.50;;;;;;;;;;5029154;28;20043;-85
2022/08/12 16:02:27;;;;;;;0.60;0.35;;;;;;;;;;5029427;28;20514;-85
2022/08/12 16:05:15;;;;;;;0.43;0.30;;;;;;;;;;5005090;28;20034;-84
2022/08/12 16:08:01;;;;;;;1.30;0.60;;;;;;;;;;5029134;28;20123;-85
2022/08/12 16:10:46;;;;;;;0.95;0.47;;;;;;;;;;5029180;28;20516;-85
2022/08/12 16:13:32;;;;;;;1.23;0.30;;;;;;;;;;5029055;28;20412;-84
2022/08/12 16:16:18;;;;;;;0.85;0.40;;;;;;;;;;5015676;28;20127;-85
2022/08/12 16:19:05;;;;;;;0.70;0.47;;;;;;;;;;5018111;28;20049;-86
2022/08/12 16:21:51;;;;;;;1.55;0.60;;;;;;;;;;5028524;28;20041;-85
2022/08/12 16:24:41;;;;;;;1.25;0.98;;;;;;;;;;5015840;28;20045;-85
2022/08/12 16:27:28;;;;;;;0.90;0.35;;;;;;;;;;5017656;28;20045;-85
2022/08/12 16:30:14;;;;;;;1.48;0.45;;;;;;;;;;5004697;28;20053;-85
2022/08/12 16:33:12;;;;;;;0.47;0.30;;;;;;;;;;5015228;28;20029;-82
2022/08/12 16:35:58;;;;;;;1.48;0.63;;;;;;;;;;5029752;28;20522;-85
2022/08/12 16:38:44;;;;;;;0.65;0.30;;;;;;;;;;5004516;28;20049;-85
2022/08/12 16:41:30;;;;;;;0.50;0.30;;;;;;;;;;5016183;28;20047;-85
2022/08/12 16:44:16;;;;;;;1.55;0.70;;;;;;;;;;5030668;28;20063;-85
2022/08/12 16:47:01;;;;;;;0.75;0.40;;;;;;;;;;5020698;28;20037;-85
2022/08/12 16:49:47;;;;;;;1.10;0.55;;;;;;;;;;5008552;28;20514;-86
2022/08/12 16:52:34;;;;;;;0.60;0.30;;;;;;;;;;5008330;28;20037;-86
2022/08/12 16:55:19;;;;;;;0.82;0.40;;;;;;;;;;5033946;28;20068;-86
2022/08/12 16:58:08;;;;;;;0.65;0.30;;;;;;;;;;5008226;28;20033;-83
2022/08/12 17:00:54;;;;;;;1.02;0.30;;;;;;;;;;5032270;28;20034;-84
2022/08/12 17:03:40;;;;;;;1.00;0.50;;;;;;;;;;5020528;28;20041;-85
2022/08/12 17:06:26;;;;;;;0.90;0.40;;;;;;;;;;5032192;28;20045;-85
2022/08/12 17:09:13;;;;;;;0.57;0.30;;;;;;;;;;5032839;28;20042;-85
2022/08/12 17:11:58;;;;;;;1.08;0.65;;;;;;;;;;5032600;28;20198;-85
2022/08/12 17:14:45;;;;;;;1.35;0.40;;;;;;;;;;5008103;28;20103;-86
2022/08/12 17:17:32;;;;;;;1.17;0.40;;;;;;;;;;5019495;28;20053;-85
2022/08/12 17:20:18;;;;;;;0.75;0.30;;;;;;;;;;5031922;28;20041;-85
2022/08/12 17:23:04;;;;;;;0.90;0.45;;;;;;;;;;5007254;28;20048;-85
2022/08/12 17:25:50;;;;;;;1.05;0.52;;;;;;;;;;5019368;28;20087;-86
2022/08/12 17:28:36;;;;;;;0.73;0.40;;;;;;;;;;5019241;28;20132;-85
2022/08/12 17:31:22;;;;;;;0.70;0.35;;;;;;;;;;5032109;28;20064;-86
2022/08/12 17:35:25;;;;;;;0.80;0.40;;;;;;;;;;5017968;28;20040;-83
2022/08/12 17:37:14;;;;;;;1.00;0.68;;;;;;;;;;5031705;28;20125;-85
2022/08/12 17:40:00;;;;;;;1.08;0.50;;;;;;;;;;5031910;28;20053;-85
2022/08/12 17:42:46;;;;;;;1.38;0.43;;;;;;;;;;5020937;28;20435;-85
2022/08/12 17:45:32;;;;;;;1.15;0.43;;;;;;;;;;5019893;28;20160;-85
2022/08/12 17:48:18;;;;;;;1.20;0.40;;;;;;;;;;5019694;28;20034;-85
2022/08/12 17:51:05;;;;;;;0.95;0.52;;;;;;;;;;5031219;28;20136;-85
2022/08/12 17:53:51;;;;;;;0.85;0.40;;;;;;;;;;5007276;28;20045;-85
2022/08/12 17:56:37;;;;;;;0.90;0.50;;;;;;;;;;5006301;28;20044;-86
2022/08/12 17:59:23;;;;;;;1.20;0.40;;;;;;;;;;5031697;28;20034;-85
2022/08/12 18:02:12;;;;;;;1.10;0.40;;;;;;;;;;5018071;28;20470;-85
2022/08/12 18:04:58;;;;;;;1.13;0.65;;;;;;;;;;5019855;28;20037;-85
2022/08/12 18:07:44;;;;;;;0.75;0.28;;;;;;;;;;5006894;28;20037;-82
2022/08/12 18:13:34;;;;;;;1.08;0.40;;;;;;;;;;5033283;28;20516;-85
2022/08/12 18:16:20;;;;;;;1.00;0.43;;;;;;;;;;5006654;28;20522;-85
2022/08/12 18:19:07;;;;;;;1.08;0.40;;;;;;;;;;5006695;28;20041;-85
2022/08/12 18:21:52;;;;;;;1.35;0.40;;;;;;;;;;5031052;28;20048;-85
2022/08/12 18:24:38;;;;;;;1.27;0.43;;;;;;;;;;5031044;28;20060;-86
2022/08/12 18:27:24;;;;;;;1.10;0.40;;;;;;;;;;5031341;28;20041;-85
2022/08/12 18:30:10;;;;;;;1.08;0.47;;;;;;;;;;5032206;28;20072;-85
2022/08/12 18:32:57;;;;;;;1.20;0.38;;;;;;;;;;5032412;28;20084;-85
2022/08/12 18:35:42;;;;;;;0.80;0.50;;;;;;;;;;5017671;28;20033;-84
2022/08/12 18:38:28;;;;;;;1.75;0.68;;;;;;;;;;5017355;28;20041;-85
2022/08/12 18:41:34;;;;;;;1.42;0.40;;;;;;;;;;5018052;28;20041;-85